createdAt,value
2018-06-05T00:01:07.232Z,6.17
2018-06-05T00:03:37.889Z,6.12
2018-06-05T00:06:06.523Z,6.10
2018-06-05T00:08:35.132Z,6.05
2018-06-05T00:11:03.953Z,6.03
2018-06-05T00:13:32.794Z,6.01
2018-06-05T00:16:01.610Z,6.00
2018-06-05T00:18:30.224Z,6.01
2018-06-05T00:21:00.609Z,5.96
2018-06-05T00:23:29.519Z,5.95
2018-06-05T00:25:58.100Z,5.96
2018-06-05T00:28:26.833Z,5.95
2018-06-05T00:30:56.240Z,5.94
2018-06-05T00:33:24.993Z,5.93
2018-06-05T00:35:53.693Z,5.14
2018-06-05T00:38:22.371Z,5.96
2018-06-05T00:40:51.205Z,5.97
2018-06-05T00:43:19.825Z,5.98
2018-06-05T00:45:51.139Z,5.92
2018-06-05T00:48:20.043Z,5.92
2018-06-05T00:50:49.654Z,5.90
2018-06-05T00:53:18.894Z,5.88
2018-06-05T00:55:47.651Z,5.86
2018-06-05T00:58:16.237Z,5.83
2018-06-05T01:00:45.070Z,5.81
2018-06-05T01:03:13.774Z,5.76
2018-06-05T01:05:42.753Z,5.74
2018-06-05T01:08:11.557Z,5.72
2018-06-05T01:10:40.361Z,5.70
2018-06-05T01:13:09.261Z,5.71
2018-06-05T01:15:38.200Z,5.70
2018-06-05T01:18:06.834Z,5.68
2018-06-05T01:20:35.766Z,5.66
2018-06-05T01:23:04.672Z,5.63
2018-06-05T01:25:33.353Z,5.62
2018-06-05T01:28:06.049Z,5.60
2018-06-05T01:33:10.393Z,5.58
2018-06-05T01:35:39.104Z,5.57
2018-06-05T01:38:11.599Z,5.58
2018-06-05T01:40:40.330Z,5.55
2018-06-05T01:43:09.974Z,5.57
2018-06-05T01:45:38.822Z,5.60
2018-06-05T01:48:10.905Z,5.57
2018-06-05T01:50:39.736Z,5.35
2018-06-05T01:53:08.692Z,5.56
2018-06-05T01:55:37.700Z,5.61
2018-06-05T01:58:10.791Z,5.59
2018-06-05T02:00:39.548Z,5.61
2018-06-05T02:03:08.323Z,5.62
2018-06-05T02:05:36.977Z,5.65
2018-06-05T02:08:05.947Z,5.67
2018-06-05T02:10:34.557Z,5.51
2018-06-05T02:13:03.174Z,5.70
2018-06-05T02:15:32.181Z,5.73
2018-06-05T02:18:00.887Z,5.73
2018-06-05T02:20:29.688Z,5.74
2018-06-05T02:22:58.464Z,5.76
2018-06-05T02:25:27.517Z,5.76
2018-06-05T02:27:56.168Z,5.80
2018-06-05T02:30:31.436Z,5.80
2018-06-05T02:33:00.396Z,5.79
2018-06-05T02:35:29.331Z,5.81
2018-06-05T02:37:58.071Z,5.83
2018-06-05T02:40:26.874Z,5.82
2018-06-05T02:42:55.647Z,5.82
2018-06-05T02:45:24.472Z,5.86
2018-06-05T02:47:53.060Z,5.89
2018-06-05T02:50:21.705Z,5.92
2018-06-05T02:52:50.364Z,5.97
2018-06-05T02:55:19.327Z,5.99
2018-06-05T02:57:47.986Z,6.02
2018-06-05T03:00:16.765Z,6.02
2018-06-05T03:02:45.527Z,6.09
2018-06-05T03:05:14.272Z,6.11
2018-06-05T03:07:43.057Z,6.16
2018-06-05T03:10:11.963Z,6.17
2018-06-05T03:12:40.859Z,6.20
2018-06-05T03:15:09.817Z,6.27
2018-06-05T03:17:38.765Z,6.29
2018-06-05T03:20:07.533Z,6.35
2018-06-05T03:22:36.302Z,6.37
2018-06-05T03:25:05.405Z,6.43
2018-06-05T03:27:34.052Z,6.47
2018-06-05T03:30:03.094Z,6.52
2018-06-05T03:32:31.855Z,6.55
2018-06-05T03:35:00.802Z,6.58
2018-06-05T03:37:29.537Z,6.63
2018-06-05T03:39:58.531Z,6.69
2018-06-05T03:42:27.414Z,6.75
2018-06-05T03:44:56.316Z,6.80
2018-06-05T03:47:25.106Z,6.84
2018-06-05T03:49:53.758Z,6.91
2018-06-05T03:52:22.356Z,6.96
2018-06-05T03:54:51.128Z,6.99
2018-06-05T03:57:19.936Z,7.07
2018-06-05T03:59:48.602Z,7.11
2018-06-05T04:02:17.255Z,7.17
2018-06-05T04:04:46.164Z,7.26
2018-06-05T04:07:15.066Z,7.30
2018-06-05T04:09:43.867Z,7.36
2018-06-05T04:12:12.578Z,7.42
2018-06-05T04:14:41.302Z,7.53
2018-06-05T04:17:10.103Z,7.57
2018-06-05T04:19:38.794Z,7.63
2018-06-05T04:22:07.552Z,7.67
2018-06-05T04:24:36.647Z,7.77
2018-06-05T04:27:05.305Z,7.83
2018-06-05T04:29:34.332Z,7.85
2018-06-05T04:32:05.775Z,7.87
2018-06-05T04:34:34.603Z,7.90
2018-06-05T04:37:03.200Z,7.96
2018-06-05T04:39:32.010Z,7.99
2018-06-05T04:42:00.657Z,8.15
2018-06-05T04:44:29.358Z,8.21
2018-06-05T04:46:58.047Z,8.28
2018-06-05T04:49:26.731Z,8.31
2018-06-05T04:51:55.327Z,8.38
2018-06-05T04:54:23.923Z,8.47
2018-06-05T04:56:52.651Z,8.52
2018-06-05T04:59:21.458Z,8.56
2018-06-05T05:01:50.337Z,8.54
2018-06-05T05:04:19.068Z,8.51
2018-06-05T05:06:47.642Z,8.58
2018-06-05T05:09:16.998Z,8.62
2018-06-05T05:11:45.927Z,8.75
2018-06-05T05:14:14.723Z,8.90
2018-06-05T05:16:43.524Z,8.91
2018-06-05T05:19:12.315Z,8.98
2018-06-05T05:21:41.005Z,9.03
2018-06-05T05:24:09.788Z,8.96
2018-06-05T05:26:38.613Z,9.03
2018-06-05T05:29:07.389Z,9.10
2018-06-05T05:31:36.161Z,9.12
2018-06-05T05:34:05.299Z,9.18
2018-06-05T05:36:34.213Z,9.20
2018-06-05T05:39:03.090Z,9.31
2018-06-05T05:41:31.785Z,9.36
2018-06-05T05:44:00.540Z,9.30
2018-06-05T05:46:29.479Z,9.35
2018-06-05T05:48:58.421Z,9.27
2018-06-05T05:51:27.133Z,9.23
2018-06-05T05:53:55.846Z,9.15
2018-06-05T05:56:24.944Z,9.34
2018-06-05T05:58:53.997Z,9.51
2018-06-05T06:01:22.977Z,9.48
2018-06-05T06:03:51.613Z,9.40
2018-06-05T06:06:20.472Z,9.51
2018-06-05T06:08:49.087Z,9.69
2018-06-05T06:11:18.199Z,9.95
2018-06-05T06:13:47.023Z,10.08
2018-06-05T06:16:15.778Z,10.12
2018-06-05T06:18:44.577Z,10.19
2018-06-05T06:21:13.278Z,10.02
2018-06-05T06:23:41.888Z,9.91
2018-06-05T06:26:10.741Z,9.87
2018-06-05T06:28:39.450Z,9.97
2018-06-05T06:31:08.289Z,9.92
2018-06-05T06:33:37.201Z,10.01
2018-06-05T06:36:06.029Z,10.04
2018-06-05T06:38:34.956Z,10.02
2018-06-05T06:41:03.952Z,10.13
2018-06-05T06:43:32.577Z,10.43
2018-06-05T06:46:01.269Z,10.69
2018-06-05T06:48:29.924Z,10.86
2018-06-05T06:50:58.965Z,10.80
2018-06-05T06:53:27.889Z,10.84
2018-06-05T06:55:56.585Z,10.87
2018-06-05T06:58:25.298Z,10.97
2018-06-05T07:00:54.300Z,11.05
2018-06-05T07:03:23.174Z,11.25
2018-06-05T07:05:51.752Z,11.22
2018-06-05T07:08:20.777Z,11.21
2018-06-05T07:10:49.560Z,11.14
2018-06-05T07:13:18.291Z,11.39
2018-06-05T07:15:47.002Z,11.61
2018-06-05T07:18:15.877Z,11.88
2018-06-05T07:20:44.617Z,12.02
2018-06-05T07:23:13.413Z,12.13
2018-06-05T07:25:42.060Z,12.40
2018-06-05T07:28:10.888Z,12.55
2018-06-05T07:30:39.590Z,12.28
2018-06-05T07:33:08.338Z,12.06
2018-06-05T07:35:37.185Z,11.92
2018-06-05T07:38:06.143Z,11.67
2018-06-05T07:40:34.786Z,11.91
2018-06-05T07:43:03.594Z,12.31
2018-06-05T07:45:32.297Z,12.72
2018-06-05T07:48:00.996Z,12.95
2018-06-05T07:50:29.831Z,13.10
2018-06-05T07:52:58.566Z,12.95
2018-06-05T07:55:27.856Z,12.81
2018-06-05T07:57:56.779Z,12.82
2018-06-05T08:00:25.475Z,13.07
2018-06-05T08:05:53.674Z,13.03
2018-06-05T08:08:22.674Z,12.19
2018-06-05T08:10:51.394Z,12.75
2018-06-05T08:13:20.234Z,12.53
2018-06-05T08:15:49.244Z,12.48
2018-06-05T08:18:18.415Z,12.51
2018-06-05T08:20:47.016Z,12.38
2018-06-05T08:23:16.001Z,12.18
2018-06-05T08:25:44.590Z,12.23
2018-06-05T08:28:13.280Z,12.43
2018-06-05T08:30:42.292Z,12.47
2018-06-05T08:33:11.158Z,12.47
2018-06-05T08:35:40.145Z,12.38
2018-06-05T08:38:08.924Z,12.18
2018-06-05T08:40:37.522Z,12.23
2018-06-05T08:43:06.269Z,12.28
2018-06-05T08:45:34.955Z,12.49
2018-06-05T08:48:03.640Z,12.41
2018-06-05T08:50:32.733Z,12.58
2018-06-05T08:53:01.410Z,12.86
2018-06-05T08:55:30.068Z,13.13
2018-06-05T08:57:58.761Z,13.24
2018-06-05T09:00:27.542Z,13.08
2018-06-05T09:02:56.516Z,12.79
2018-06-05T09:05:25.517Z,12.75
2018-06-05T09:07:54.070Z,12.62
2018-06-05T09:10:22.912Z,12.38
2018-06-05T09:12:51.718Z,12.60
2018-06-05T09:15:20.385Z,12.77
2018-06-05T09:17:49.192Z,12.95
2018-06-05T09:20:17.932Z,12.86
2018-06-05T09:22:46.613Z,12.64
2018-06-05T09:25:15.622Z,12.52
2018-06-05T09:27:44.779Z,12.73
2018-06-05T09:30:13.448Z,12.77
2018-06-05T09:32:42.231Z,12.80
2018-06-05T09:35:11.092Z,12.92
2018-06-05T09:37:40.012Z,13.04
2018-06-05T09:40:08.800Z,13.13
2018-06-05T09:42:37.500Z,13.06
2018-06-05T09:45:06.481Z,12.97
2018-06-05T09:47:35.484Z,13.28
2018-06-05T09:50:04.287Z,13.62
2018-06-05T09:52:32.968Z,13.51
2018-06-05T09:55:01.608Z,13.51
2018-06-05T09:57:30.375Z,13.43
2018-06-05T09:59:59.194Z,13.19
2018-06-05T10:02:27.996Z,12.97
2018-06-05T10:04:56.905Z,12.91
2018-06-05T10:07:25.693Z,12.88
2018-06-05T10:09:54.591Z,12.80
2018-06-05T10:12:23.350Z,12.77
2018-06-05T10:14:52.133Z,12.77
2018-06-05T10:17:20.943Z,12.82
2018-06-05T10:19:49.753Z,12.87
2018-06-05T10:22:18.428Z,13.08
2018-06-05T10:24:47.013Z,13.64
2018-06-05T10:27:16.129Z,14.06
2018-06-05T10:29:44.839Z,14.23
2018-06-05T10:32:13.560Z,14.16
2018-06-05T10:34:42.435Z,13.87
2018-06-05T10:37:11.170Z,13.68
2018-06-05T10:39:40.251Z,13.43
2018-06-05T10:42:09.106Z,13.38
2018-06-05T10:44:37.899Z,13.06
2018-06-05T10:47:06.585Z,12.77
2018-06-05T10:49:35.227Z,12.91
2018-06-05T10:52:03.904Z,13.01
2018-06-05T10:54:32.705Z,12.90
2018-06-05T10:57:01.504Z,13.05
2018-06-05T10:59:30.442Z,13.16
2018-06-05T11:01:59.419Z,13.24
2018-06-05T11:04:28.200Z,13.19
2018-06-05T11:06:57.094Z,13.71
2018-06-05T11:09:26.092Z,14.55
2018-06-05T11:11:54.852Z,15.26
2018-06-05T11:14:23.484Z,15.74
2018-06-05T11:16:52.312Z,15.67
2018-06-05T11:19:21.086Z,15.18
2018-06-05T11:21:50.176Z,14.74
2018-06-05T11:24:19.031Z,14.08
2018-06-05T11:26:47.835Z,13.96
2018-06-05T11:29:16.657Z,13.85
2018-06-05T11:31:45.471Z,13.60
2018-06-05T11:34:14.304Z,13.44
2018-06-05T11:36:44.146Z,13.46
2018-06-05T11:39:12.971Z,14.08
2018-06-05T11:41:41.732Z,14.38
2018-06-05T11:44:10.409Z,14.22
2018-06-05T11:46:39.197Z,14.15
2018-06-05T11:49:08.102Z,13.73
2018-06-05T11:51:37.177Z,13.29
2018-06-05T11:54:06.258Z,13.01
2018-06-05T11:56:35.689Z,12.74
2018-06-05T11:59:04.596Z,12.45
2018-06-05T12:01:33.320Z,12.24
2018-06-05T12:04:02.318Z,12.38
2018-06-05T12:06:31.127Z,12.68
2018-06-05T12:08:59.880Z,13.31
2018-06-05T12:11:28.773Z,13.83
2018-06-05T12:13:57.650Z,14.01
2018-06-05T12:16:26.252Z,14.52
2018-06-05T12:18:54.976Z,15.51
2018-06-05T12:21:23.527Z,16.81
2018-06-05T12:23:52.562Z,17.59
2018-06-05T12:26:21.223Z,18.79
2018-06-05T12:28:50.080Z,19.66
2018-06-05T12:31:19.102Z,21.06
2018-06-05T12:33:48.378Z,23.06
2018-06-05T12:36:17.265Z,22.94
2018-06-05T12:38:45.954Z,21.78
2018-06-05T12:41:14.866Z,19.29
2018-06-05T12:43:43.634Z,18.18
2018-06-05T12:46:12.239Z,19.83
2018-06-05T12:48:40.870Z,18.79
2018-06-05T12:51:09.858Z,22.24
2018-06-05T12:53:38.631Z,20.51
2018-06-05T12:56:07.349Z,19.14
2018-06-05T12:58:36.301Z,18.07
2018-06-05T13:01:05.382Z,16.97
2018-06-05T13:03:34.084Z,16.12
2018-06-05T13:06:03.054Z,15.31
2018-06-05T13:08:31.942Z,14.79
2018-06-05T13:11:00.962Z,14.45
2018-06-05T13:13:29.974Z,14.08
2018-06-05T13:15:58.621Z,14.02
2018-06-05T13:18:27.636Z,14.08
2018-06-05T13:20:56.433Z,14.17
2018-06-05T13:23:25.382Z,14.01
2018-06-05T13:25:54.312Z,13.94
2018-06-05T13:28:23.056Z,13.95
2018-06-05T13:30:51.784Z,14.02
2018-06-05T13:33:20.558Z,14.02
2018-06-05T13:35:49.268Z,14.00
2018-06-05T13:38:17.985Z,14.05
2018-06-05T13:40:47.145Z,14.16
2018-06-05T13:43:15.949Z,14.25
2018-06-05T13:45:44.679Z,14.27
2018-06-05T13:48:13.639Z,14.36
2018-06-05T13:50:42.331Z,14.40
2018-06-05T13:53:11.121Z,14.50
2018-06-05T13:55:39.946Z,14.74
2018-06-05T13:58:08.914Z,15.03
2018-06-05T14:00:37.861Z,15.34
2018-06-05T14:03:06.882Z,15.98
2018-06-05T14:05:35.511Z,16.04
2018-06-05T14:08:04.214Z,16.57
2018-06-05T14:10:32.941Z,16.92
2018-06-05T14:13:01.626Z,16.97
2018-06-05T14:15:30.511Z,16.83
2018-06-05T14:17:59.151Z,16.57
2018-06-05T14:20:28.062Z,16.30
2018-06-05T14:22:56.805Z,15.79
2018-06-05T14:25:25.519Z,15.26
2018-06-05T14:27:54.422Z,14.97
2018-06-05T14:30:23.263Z,14.65
2018-06-05T14:32:52.174Z,14.49
2018-06-05T14:35:21.175Z,14.38
2018-06-05T14:37:49.947Z,14.17
2018-06-05T14:40:18.696Z,14.03
2018-06-05T14:42:47.465Z,14.07
2018-06-05T14:45:16.419Z,14.10
2018-06-05T14:47:44.987Z,14.26
2018-06-05T14:50:13.832Z,14.23
2018-06-05T14:52:42.448Z,14.07
2018-06-05T14:55:11.172Z,13.95
2018-06-05T14:57:39.995Z,13.89
2018-06-05T15:00:08.665Z,13.75
2018-06-05T15:02:37.517Z,13.64
2018-06-05T15:05:06.158Z,13.62
2018-06-05T15:07:34.796Z,13.59
2018-06-05T15:10:03.437Z,13.60
2018-06-05T15:12:32.040Z,13.62
2018-06-05T15:15:00.785Z,13.74
2018-06-05T15:17:29.677Z,13.86
2018-06-05T15:19:58.335Z,13.93
2018-06-05T15:22:27.036Z,13.99
2018-06-05T15:24:55.652Z,13.72
2018-06-05T15:27:24.730Z,13.83
2018-06-05T15:29:53.892Z,13.72
2018-06-05T15:32:22.638Z,13.74
2018-06-05T15:34:51.483Z,13.77
2018-06-05T15:37:20.476Z,13.79
2018-06-05T15:39:49.178Z,13.79
2018-06-05T15:42:18.010Z,13.77
2018-06-05T15:44:47.126Z,13.73
2018-06-05T15:47:15.904Z,13.74
2018-06-05T15:49:45.025Z,13.77
2018-06-05T15:52:13.896Z,13.74
2018-06-05T15:54:42.688Z,13.79
2018-06-05T15:57:11.537Z,13.89
2018-06-05T15:59:40.414Z,13.94
2018-06-05T16:02:09.144Z,14.01
2018-06-05T16:04:37.877Z,14.09
2018-06-05T16:07:06.780Z,13.88
2018-06-05T16:09:35.680Z,13.84
2018-06-05T16:12:04.542Z,13.92
2018-06-05T16:14:33.203Z,13.86
2018-06-05T16:17:01.967Z,13.81
2018-06-05T16:19:30.840Z,13.75
2018-06-05T16:21:59.549Z,13.71
2018-06-05T16:24:28.550Z,13.69
2018-06-05T16:26:57.423Z,13.50
2018-06-05T16:29:26.334Z,13.38
2018-06-05T16:31:55.295Z,13.42
2018-06-05T16:34:23.895Z,13.34
2018-06-05T16:36:52.680Z,13.29
2018-06-05T16:39:21.455Z,13.31
2018-06-05T16:41:50.249Z,13.34
2018-06-05T16:44:18.934Z,13.31
2018-06-05T16:46:47.882Z,13.30
2018-06-05T16:49:16.672Z,13.23
2018-06-05T16:51:45.521Z,12.99
2018-06-05T16:54:14.309Z,12.80
2018-06-05T16:56:43.095Z,12.71
2018-06-05T16:59:11.777Z,12.60
2018-06-05T17:01:40.637Z,12.54
2018-06-05T17:04:09.431Z,12.43
2018-06-05T17:06:38.127Z,12.45
2018-06-05T17:09:08.049Z,12.44
2018-06-05T17:11:36.783Z,12.46
2018-06-05T17:14:05.522Z,12.48
2018-06-05T17:16:34.952Z,12.44
2018-06-05T17:19:03.899Z,12.42
2018-06-05T17:21:32.574Z,12.45
2018-06-05T17:24:01.397Z,12.51
2018-06-05T17:26:30.278Z,12.48
2018-06-05T17:28:59.004Z,12.44
2018-06-05T17:31:27.817Z,12.47
2018-06-05T17:33:57.115Z,9.98
2018-06-05T17:36:26.143Z,12.50
2018-06-05T17:38:55.389Z,12.47
2018-06-05T17:41:27.834Z,12.49
2018-06-05T17:43:56.724Z,12.53
2018-06-05T17:46:25.803Z,12.53
2018-06-05T17:48:55.464Z,11.50
2018-06-05T17:51:24.566Z,12.60
2018-06-05T17:53:53.504Z,12.59
2018-06-05T17:56:22.261Z,12.53
2018-06-05T17:58:50.984Z,12.51
2018-06-05T18:01:19.622Z,12.47
2018-06-05T18:03:48.356Z,12.46
2018-06-05T18:06:18.276Z,12.46
2018-06-05T18:08:47.461Z,12.45
2018-06-05T18:11:17.491Z,12.53
2018-06-05T18:13:47.400Z,12.48
2018-06-05T18:16:17.065Z,12.48
2018-06-05T18:18:46.532Z,12.53
2018-06-05T18:21:15.728Z,12.57
2018-06-05T18:23:44.606Z,12.48
2018-06-05T18:26:13.216Z,12.47
2018-06-05T18:28:41.943Z,12.47
2018-06-05T18:31:10.704Z,12.45
2018-06-05T18:33:39.421Z,12.34
2018-06-05T18:36:08.163Z,12.26
2018-06-05T18:38:36.782Z,12.29
2018-06-05T18:41:05.590Z,12.22
2018-06-05T18:43:34.225Z,12.17
2018-06-05T18:46:03.065Z,12.08
2018-06-05T18:48:31.951Z,12.00
2018-06-05T18:51:05.392Z,12.01
2018-06-05T18:53:34.576Z,11.97
2018-06-05T18:56:03.267Z,11.94
2018-06-05T18:58:32.938Z,11.88
2018-06-05T19:01:01.695Z,11.84
2018-06-05T19:03:30.614Z,11.85
2018-06-05T19:05:59.198Z,11.85
2018-06-05T19:08:28.153Z,11.77
2018-06-05T19:10:57.111Z,11.74
2018-06-05T19:13:25.794Z,11.74
2018-06-05T19:15:54.681Z,11.71
2018-06-05T19:18:23.487Z,11.68
2018-06-05T19:20:52.134Z,11.69
2018-06-05T19:23:20.864Z,11.66
2018-06-05T19:25:49.659Z,11.62
2018-06-05T19:28:18.590Z,11.58
2018-06-05T19:30:48.234Z,11.55
2018-06-05T19:33:16.893Z,11.53
2018-06-05T19:35:46.233Z,11.52
2018-06-05T19:38:14.892Z,11.46
2018-06-05T19:40:43.764Z,11.42
2018-06-05T19:43:12.839Z,11.44
2018-06-05T19:45:41.616Z,11.45
2018-06-05T19:48:12.888Z,11.42
2018-06-05T19:50:41.560Z,11.40
2018-06-05T19:53:11.449Z,11.39
2018-06-05T19:55:40.091Z,11.39
2018-06-05T19:58:09.000Z,11.35
2018-06-05T20:00:37.636Z,11.28
2018-06-05T20:03:07.120Z,11.25
2018-06-05T20:05:35.847Z,11.24
2018-06-05T20:08:04.672Z,11.23
2018-06-05T20:10:33.515Z,11.23
2018-06-05T20:13:02.205Z,11.20
2018-06-05T20:15:30.938Z,11.17
2018-06-05T20:17:59.656Z,11.17
2018-06-05T20:20:28.340Z,11.18
2018-06-05T20:22:57.254Z,11.15
2018-06-05T20:25:26.507Z,11.10
2018-06-05T20:27:55.342Z,11.09
2018-06-05T20:30:24.534Z,11.05
2018-06-05T20:32:53.187Z,11.06
2018-06-05T20:35:22.811Z,11.02
2018-06-05T20:37:51.561Z,11.02
2018-06-05T20:40:20.639Z,11.00
2018-06-05T20:42:49.413Z,10.91
2018-06-05T20:45:18.164Z,10.91
2018-06-05T20:47:47.399Z,10.93
2018-06-05T20:50:16.525Z,10.85
2018-06-05T20:52:45.124Z,10.83
2018-06-05T20:55:14.005Z,10.85
2018-06-05T20:57:42.619Z,10.83
2018-06-05T21:00:11.328Z,10.78
2018-06-05T21:02:40.207Z,10.71
2018-06-05T21:05:08.875Z,10.73
2018-06-05T21:07:37.911Z,10.72
2018-06-05T21:10:07.044Z,10.63
2018-06-05T21:12:35.897Z,10.55
2018-06-05T21:15:04.538Z,10.56
2018-06-05T21:17:33.185Z,10.53
2018-06-05T21:20:01.804Z,10.57
2018-06-05T21:22:31.082Z,10.54
2018-06-05T21:24:59.787Z,10.57
2018-06-05T21:27:28.447Z,10.57
2018-06-05T21:29:57.535Z,10.57
2018-06-05T21:32:26.533Z,10.54
2018-06-05T21:34:55.137Z,10.49
2018-06-05T21:37:23.981Z,10.46
2018-06-05T21:39:52.728Z,10.37
2018-06-05T21:42:21.843Z,10.42
2018-06-05T21:44:50.583Z,10.38
2018-06-05T21:47:19.572Z,10.33
2018-06-05T21:49:49.289Z,10.26
2018-06-05T21:52:18.151Z,10.25
2018-06-05T21:54:46.945Z,10.19
2018-06-05T21:57:15.842Z,10.20
2018-06-05T21:59:44.664Z,10.23
2018-06-05T22:02:13.306Z,10.22
2018-06-05T22:04:42.097Z,10.20
2018-06-05T22:07:10.798Z,10.15
2018-06-05T22:09:39.505Z,10.08
2018-06-05T22:12:10.861Z,10.07
2018-06-05T22:14:39.751Z,10.04
2018-06-05T22:17:08.396Z,10.05
2018-06-05T22:19:37.580Z,9.98
2018-06-05T22:22:06.498Z,9.97
2018-06-05T22:24:35.501Z,9.91
2018-06-05T22:27:04.508Z,9.87
2018-06-05T22:29:33.378Z,9.85
2018-06-05T22:32:02.304Z,9.76
2018-06-05T22:34:31.266Z,9.69
2018-06-05T22:37:00.447Z,9.62
2018-06-05T22:39:29.954Z,9.60
2018-06-05T22:41:59.198Z,9.53
2018-06-05T22:44:28.432Z,9.50
2018-06-05T22:46:57.425Z,9.51
2018-06-05T22:49:26.292Z,9.45
2018-06-05T22:51:55.712Z,9.47
2018-06-05T22:54:24.814Z,9.48
2018-06-05T22:56:54.007Z,9.46
2018-06-05T22:59:22.957Z,9.47
2018-06-05T23:01:51.615Z,9.46
2018-06-05T23:04:20.320Z,9.50
2018-06-05T23:06:49.112Z,9.53
2018-06-05T23:09:17.935Z,9.50
2018-06-05T23:11:46.912Z,9.49
2018-06-05T23:14:15.711Z,9.49
2018-06-05T23:16:44.404Z,9.39
2018-06-05T23:19:13.176Z,9.40
2018-06-05T23:21:41.984Z,9.38
2018-06-05T23:24:10.642Z,9.33
2018-06-05T23:26:39.331Z,9.32
2018-06-05T23:29:08.132Z,9.21
2018-06-05T23:31:36.995Z,9.19
2018-06-05T23:34:05.742Z,9.10
2018-06-05T23:36:34.678Z,9.08
2018-06-05T23:39:03.522Z,9.10
2018-06-05T23:41:32.231Z,9.09
2018-06-05T23:44:00.891Z,9.08
2018-06-05T23:46:29.477Z,8.79
2018-06-05T23:48:58.266Z,8.97
2018-06-05T23:51:27.151Z,8.98
2018-06-05T23:53:55.745Z,8.98
2018-06-05T23:56:24.604Z,9.01
2018-06-05T23:58:53.344Z,8.94
